createdAt,value
2022-10-01T00:01:16.844Z,3.63
2022-10-01T00:03:44.272Z,3.58
2022-10-01T00:06:14.632Z,3.38
2022-10-01T00:08:42.587Z,3.22
2022-10-01T00:11:12.468Z,3.72
2022-10-01T00:13:58.017Z,3.65
2022-10-01T00:16:27.675Z,4.05
2022-10-01T00:18:55.421Z,3.78
2022-10-01T00:21:25.181Z,3.55
2022-10-01T00:24:05.942Z,4.07
2022-10-01T00:26:35.220Z,3.75
2022-10-01T00:29:06.575Z,4.10
2022-10-01T00:31:34.471Z,4.32
2022-10-01T00:34:05.196Z,3.95
2022-10-01T00:36:33.104Z,4.13
2022-10-01T00:39:01.984Z,4.70
2022-10-01T00:41:32.180Z,4.35
2022-10-01T00:44:23.431Z,4.47
2022-10-01T00:46:51.363Z,3.90
2022-10-01T00:49:24.270Z,3.97
2022-10-01T00:51:55.453Z,4.03
2022-10-01T00:54:39.949Z,3.42
2022-10-01T00:57:07.658Z,3.80
2022-10-01T00:59:36.316Z,3.47
2022-10-01T01:02:03.611Z,3.67
2022-10-01T01:04:30.888Z,3.97
2022-10-01T01:07:01.288Z,3.67
2022-10-01T01:09:32.785Z,3.80
2022-10-01T01:12:24.849Z,3.60
2022-10-01T01:15:07.312Z,3.28
2022-10-01T01:17:43.807Z,3.65
2022-10-01T01:20:23.991Z,3.58
2022-10-01T01:23:16.029Z,3.92
2022-10-01T01:26:05.928Z,4.00
2022-10-01T01:28:40.919Z,3.78
2022-10-01T01:31:13.717Z,4.45
2022-10-01T01:33:44.333Z,4.47
2022-10-01T01:36:22.275Z,4.20
2022-10-01T01:38:57.739Z,3.80
2022-10-01T01:41:29.466Z,3.90
2022-10-01T01:44:02.187Z,4.78
2022-10-01T01:46:36.344Z,4.03
2022-10-01T01:49:04.452Z,4.32
2022-10-01T01:51:43.570Z,3.53
2022-10-01T01:54:10.492Z,3.88
2022-10-01T01:56:38.128Z,4.30
2022-10-01T01:59:05.607Z,3.92
2022-10-01T02:01:41.143Z,4.07
2022-10-01T02:06:46.994Z,4.13
2022-10-01T02:09:26.101Z,3.65
2022-10-01T02:12:20.594Z,3.97
2022-10-01T02:15:13.340Z,3.95
2022-10-01T02:18:16.583Z,3.60
2022-10-01T02:20:51.224Z,3.38
2022-10-01T02:23:25.524Z,4.07
2022-10-01T02:25:59.371Z,3.33
2022-10-01T02:28:26.861Z,4.13
2022-10-01T02:30:56.353Z,3.97
2022-10-01T02:33:31.489Z,2.88
2022-10-01T02:36:00.735Z,3.33
2022-10-01T02:38:29.320Z,3.15
2022-10-01T02:41:00.993Z,3.92
2022-10-01T02:43:43.958Z,3.40
2022-10-01T02:46:20.454Z,3.65
2022-10-01T02:48:48.223Z,3.78
2022-10-01T02:51:30.039Z,3.60
2022-10-01T02:54:05.281Z,3.83
2022-10-01T02:56:56.146Z,3.42
2022-10-01T02:59:23.493Z,3.88
2022-10-01T03:01:50.524Z,3.63
2022-10-01T03:04:19.231Z,3.38
2022-10-01T03:06:46.391Z,3.33
2022-10-01T03:09:13.925Z,3.60
2022-10-01T03:11:42.477Z,4.28
2022-10-01T03:14:10.783Z,3.83
2022-10-01T03:16:37.743Z,3.22
2022-10-01T03:19:04.897Z,3.85
2022-10-01T03:21:32.133Z,3.35
2022-10-01T03:23:59.300Z,4.00
2022-10-01T03:26:26.251Z,4.47
2022-10-01T03:28:53.224Z,3.90
2022-10-01T03:31:20.428Z,3.80
2022-10-01T03:33:47.379Z,3.33
2022-10-01T03:36:14.283Z,3.60
2022-10-01T03:38:41.351Z,3.58
2022-10-01T03:41:08.522Z,3.90
2022-10-01T03:43:35.685Z,3.63
2022-10-01T03:46:03.005Z,3.88
2022-10-01T03:48:30.334Z,3.20
2022-10-01T03:50:59.519Z,3.53
2022-10-01T03:53:27.583Z,2.97
2022-10-01T03:55:55.310Z,3.35
2022-10-01T03:58:23.347Z,3.72
2022-10-01T04:00:50.791Z,3.97
2022-10-01T04:03:18.471Z,4.25
2022-10-01T04:05:46.338Z,4.13
2022-10-01T04:08:14.632Z,3.55
2022-10-01T04:10:42.074Z,3.80
2022-10-01T04:13:09.372Z,3.30
2022-10-01T04:15:36.497Z,3.33
2022-10-01T04:18:05.689Z,2.97
2022-10-01T04:20:34.412Z,3.97
2022-10-01T04:23:01.987Z,3.38
2022-10-01T04:25:29.605Z,3.65
2022-10-01T04:27:59.792Z,3.45
2022-10-01T04:30:34.099Z,3.65
2022-10-01T04:33:01.680Z,3.97
2022-10-01T04:35:29.113Z,3.75
2022-10-01T04:38:03.548Z,3.15
2022-10-01T04:40:35.338Z,3.80
2022-10-01T04:43:04.093Z,3.75
2022-10-01T04:45:32.251Z,3.58
2022-10-01T04:47:59.743Z,4.10
2022-10-01T04:50:27.581Z,3.83
2022-10-01T04:52:54.896Z,3.97
2022-10-01T04:55:22.953Z,4.15
2022-10-01T04:57:50.203Z,3.45
2022-10-01T05:00:24.394Z,4.47
2022-10-01T05:02:52.009Z,3.80
2022-10-01T05:05:21.482Z,3.97
2022-10-01T05:07:49.151Z,3.78
2022-10-01T05:10:21.503Z,4.30
2022-10-01T05:12:49.436Z,4.40
2022-10-01T05:15:17.428Z,4.40
2022-10-01T05:17:44.777Z,4.82
2022-10-01T05:20:20.606Z,4.78
2022-10-01T05:22:49.385Z,4.20
2022-10-01T05:25:17.450Z,4.45
2022-10-01T05:27:44.630Z,4.70
2022-10-01T05:30:13.381Z,3.55
2022-10-01T05:32:40.466Z,5.82
2022-10-01T05:35:08.482Z,3.95
2022-10-01T05:37:35.934Z,4.82
2022-10-01T05:40:03.714Z,4.93
2022-10-01T05:42:30.803Z,3.83
2022-10-01T05:44:57.755Z,4.20
2022-10-01T05:47:24.796Z,5.40
2022-10-01T05:49:51.764Z,3.58
2022-10-01T05:52:18.855Z,5.00
2022-10-01T05:54:45.783Z,4.60
2022-10-01T05:57:13.022Z,4.50
2022-10-01T05:59:40.298Z,5.10
2022-10-01T06:02:09.686Z,5.82
2022-10-01T06:04:40.902Z,6.80
2022-10-01T06:07:08.191Z,7.00
2022-10-01T06:09:35.231Z,5.10
2022-10-01T06:12:02.673Z,5.97
2022-10-01T06:14:29.743Z,5.35
2022-10-01T06:16:56.714Z,5.50
2022-10-01T06:19:23.820Z,5.90
2022-10-01T06:21:51.800Z,4.72
2022-10-01T06:24:18.966Z,5.60
2022-10-01T06:26:45.982Z,5.03
2022-10-01T06:29:13.032Z,4.60
2022-10-01T06:31:40.370Z,4.93
2022-10-01T06:34:07.413Z,5.82
2022-10-01T06:36:34.451Z,5.63
2022-10-01T06:39:01.504Z,6.15
2022-10-01T06:41:28.430Z,5.75
2022-10-01T06:43:55.451Z,5.18
2022-10-01T06:46:22.589Z,5.25
2022-10-01T06:48:49.850Z,5.88
2022-10-01T06:51:36.900Z,6.13
2022-10-01T06:54:04.671Z,5.00
2022-10-01T06:56:31.605Z,6.20
2022-10-01T06:58:58.519Z,4.90
2022-10-01T07:01:25.585Z,3.92
2022-10-01T07:03:54.518Z,4.22
2022-10-01T07:06:21.484Z,4.60
2022-10-01T07:08:51.801Z,4.15
2022-10-01T07:11:19.117Z,4.03
2022-10-01T07:13:46.114Z,4.25
2022-10-01T07:16:13.088Z,4.13
2022-10-01T07:18:40.146Z,3.70
2022-10-01T07:21:07.100Z,3.33
2022-10-01T07:23:34.049Z,3.63
2022-10-01T07:26:03.274Z,4.25
2022-10-01T07:28:30.270Z,4.00
2022-10-01T07:31:12.366Z,3.22
2022-10-01T07:33:39.996Z,3.28
2022-10-01T07:36:09.160Z,4.15
2022-10-01T07:38:36.198Z,3.95
2022-10-01T07:41:03.597Z,3.38
2022-10-01T07:43:32.024Z,3.92
2022-10-01T07:46:00.281Z,3.67
2022-10-01T07:48:27.960Z,3.35
2022-10-01T07:50:54.996Z,3.45
2022-10-01T07:53:23.955Z,3.72
2022-10-01T07:55:51.108Z,3.60
2022-10-01T07:58:18.832Z,3.90
2022-10-01T08:00:45.841Z,3.28
2022-10-01T08:03:12.960Z,3.72
2022-10-01T08:05:42.397Z,3.28
2022-10-01T08:08:09.903Z,3.25
2022-10-01T08:10:38.402Z,3.63
2022-10-01T08:13:08.881Z,3.28
2022-10-01T08:15:36.171Z,3.63
2022-10-01T08:18:04.611Z,3.58
2022-10-01T08:20:31.766Z,3.60
2022-10-01T08:23:07.143Z,3.33
2022-10-01T08:25:34.692Z,3.65
2022-10-01T08:28:01.949Z,3.58
2022-10-01T08:30:29.518Z,3.40
2022-10-01T08:32:58.080Z,3.33
2022-10-01T08:35:26.741Z,3.65
2022-10-01T08:37:56.598Z,2.28
2022-10-01T08:40:24.533Z,3.13
2022-10-01T08:43:00.093Z,3.88
2022-10-01T08:48:16.719Z,2.50
2022-10-01T08:50:52.972Z,3.42
2022-10-01T08:53:31.408Z,3.08
2022-10-01T08:55:59.685Z,3.15
2022-10-01T08:58:45.191Z,3.05
2022-10-01T09:01:12.517Z,3.00
2022-10-01T09:03:40.190Z,2.45
2022-10-01T09:06:15.841Z,2.25
2022-10-01T09:12:01.183Z,2.50
2022-10-01T09:14:31.146Z,2.40
2022-10-01T09:17:01.248Z,2.35
2022-10-01T09:19:54.997Z,2.65
2022-10-01T09:22:41.621Z,2.92
2022-10-01T09:25:27.020Z,2.47
2022-10-01T09:28:07.288Z,2.75
2022-10-01T09:30:36.506Z,2.65
2022-10-01T09:33:16.097Z,2.95
2022-10-01T09:36:03.987Z,2.78
2022-10-01T09:38:41.556Z,3.10
2022-10-01T09:41:10.690Z,3.40
2022-10-01T09:43:43.926Z,3.47
2022-10-01T09:46:17.247Z,3.08
2022-10-01T09:49:03.609Z,2.88
2022-10-01T09:51:40.142Z,3.45
2022-10-01T09:54:22.867Z,3.30
2022-10-01T09:57:13.731Z,3.72
2022-10-01T09:59:53.074Z,5.00
2022-10-01T10:02:32.242Z,3.25
2022-10-01T10:05:01.214Z,3.47
2022-10-01T10:07:29.739Z,3.55
2022-10-01T10:09:56.864Z,3.63
2022-10-01T10:12:30.948Z,3.60
2022-10-01T10:15:07.433Z,4.75
2022-10-01T10:17:37.931Z,3.78
2022-10-01T10:20:19.026Z,3.75
2022-10-01T10:22:45.999Z,3.17
2022-10-01T10:25:21.001Z,3.90
2022-10-01T10:27:56.102Z,2.80
2022-10-01T10:30:26.781Z,3.10
2022-10-01T10:33:02.393Z,3.28
2022-10-01T10:37:57.839Z,3.22
2022-10-01T10:40:45.448Z,3.80
2022-10-01T10:43:25.684Z,3.65
2022-10-01T10:45:56.803Z,3.53
2022-10-01T10:48:35.741Z,4.40
2022-10-01T10:51:05.402Z,3.67
2022-10-01T10:53:44.700Z,3.53
2022-10-01T10:56:23.564Z,3.33
2022-10-01T10:58:54.095Z,3.50
2022-10-01T11:01:30.866Z,3.53
2022-10-01T11:04:00.588Z,3.85
2022-10-01T11:06:28.045Z,3.50
2022-10-01T11:09:01.482Z,3.13
2022-10-01T11:11:40.697Z,3.42
2022-10-01T11:14:28.820Z,3.45
2022-10-01T11:17:22.855Z,3.45
2022-10-01T11:20:10.684Z,3.42
2022-10-01T11:22:46.925Z,3.10
2022-10-01T11:25:35.088Z,3.67
2022-10-01T11:28:33.299Z,3.00
2022-10-01T11:31:29.539Z,3.10
2022-10-01T11:34:07.593Z,3.70
2022-10-01T11:37:01.187Z,3.58
2022-10-01T11:39:32.429Z,3.17
2022-10-01T11:42:09.333Z,2.97
2022-10-01T11:44:43.702Z,3.25
2022-10-01T11:47:16.358Z,3.00
2022-10-01T11:49:43.432Z,3.50
2022-10-01T11:52:32.657Z,3.03
2022-10-01T11:55:37.537Z,2.70
2022-10-01T11:58:47.921Z,3.60
2022-10-01T12:01:37.815Z,3.17
2022-10-01T12:04:33.390Z,3.65
2022-10-01T12:07:23.411Z,3.97
2022-10-01T12:09:58.899Z,2.85
2022-10-01T12:12:35.253Z,2.53
2022-10-01T12:15:30.025Z,3.22
2022-10-01T12:18:06.559Z,3.40
2022-10-01T12:20:43.160Z,2.70
2022-10-01T12:23:36.195Z,3.05
2022-10-01T12:26:36.175Z,2.85
2022-10-01T12:29:28.340Z,2.97
2022-10-01T12:32:04.386Z,3.40
2022-10-01T12:35:05.436Z,2.78
2022-10-01T12:37:51.698Z,2.85
2022-10-01T12:40:32.516Z,3.35
2022-10-01T12:43:22.725Z,2.60
2022-10-01T12:45:56.155Z,2.92
2022-10-01T12:48:36.729Z,3.97
2022-10-01T12:51:21.675Z,2.22
2022-10-01T12:54:13.480Z,2.45
2022-10-01T12:56:50.164Z,2.47
2022-10-01T12:59:58.833Z,2.13
2022-10-01T13:03:01.014Z,1.58
2022-10-01T13:05:31.027Z,2.20
2022-10-01T13:08:16.420Z,2.13
2022-10-01T13:11:12.234Z,1.60
2022-10-01T13:13:40.135Z,1.88
2022-10-01T13:16:20.772Z,1.38
2022-10-01T13:19:00.464Z,1.60
2022-10-01T13:21:50.116Z,1.50
2022-10-01T13:24:19.901Z,1.27
2022-10-01T13:27:04.704Z,1.55
2022-10-01T13:30:04.333Z,1.35
2022-10-01T13:32:53.458Z,1.77
2022-10-01T13:35:24.054Z,1.90
2022-10-01T13:37:51.312Z,1.92
2022-10-01T13:40:28.307Z,1.98
2022-10-01T13:43:00.389Z,1.35
2022-10-01T13:45:29.384Z,2.20
2022-10-01T13:48:09.964Z,2.80
2022-10-01T13:50:40.041Z,2.10
2022-10-01T13:53:16.530Z,1.73
2022-10-01T13:55:46.341Z,1.95
2022-10-01T13:58:33.299Z,1.70
2022-10-01T14:01:03.077Z,1.77
2022-10-01T14:03:36.821Z,1.85
2022-10-01T14:06:07.781Z,1.15
2022-10-01T14:09:04.598Z,1.60
2022-10-01T14:11:53.138Z,1.40
2022-10-01T14:14:45.090Z,1.85
2022-10-01T14:17:14.164Z,1.90
2022-10-01T14:19:49.717Z,2.53
2022-10-01T14:22:40.836Z,1.70
2022-10-01T14:25:41.435Z,2.13
2022-10-01T14:28:17.092Z,1.42
2022-10-01T14:31:02.979Z,2.20
2022-10-01T14:36:34.719Z,2.15
2022-10-01T14:39:27.256Z,2.35
2022-10-01T14:41:56.632Z,2.28
2022-10-01T14:44:37.009Z,2.00
2022-10-01T14:47:19.743Z,2.47
2022-10-01T14:49:47.826Z,2.10
2022-10-01T14:52:25.883Z,1.85
2022-10-01T14:55:03.006Z,1.80
2022-10-01T14:57:42.619Z,1.73
2022-10-01T15:00:27.636Z,1.85
2022-10-01T15:03:13.199Z,1.80
2022-10-01T15:05:40.199Z,1.88
2022-10-01T15:08:17.495Z,1.42
2022-10-01T15:10:59.152Z,1.30
2022-10-01T15:13:29.708Z,1.23
2022-10-01T15:15:56.947Z,1.42
2022-10-01T15:18:24.494Z,1.33
2022-10-01T15:21:06.394Z,1.50
2022-10-01T15:23:39.231Z,1.40
2022-10-01T15:26:20.074Z,1.30
2022-10-01T15:28:47.067Z,1.30
2022-10-01T15:31:15.216Z,1.10
2022-10-01T15:33:43.112Z,1.67
2022-10-01T15:36:17.286Z,1.38
2022-10-01T15:38:47.292Z,1.35
2022-10-01T15:41:31.406Z,1.48
2022-10-01T15:44:05.408Z,1.60
2022-10-01T15:46:42.470Z,1.55
2022-10-01T15:49:15.141Z,1.15
2022-10-01T15:52:06.900Z,1.40
2022-10-01T15:54:34.699Z,1.27
2022-10-01T15:57:03.248Z,1.05
2022-10-01T15:59:30.560Z,1.10
2022-10-01T16:01:57.828Z,5.78
2022-10-01T16:04:24.819Z,1.50
2022-10-01T16:06:52.563Z,1.20
2022-10-01T16:09:22.160Z,1.20
2022-10-01T16:12:19.929Z,1.20
2022-10-01T16:15:22.899Z,1.20
2022-10-01T16:17:55.093Z,1.30
2022-10-01T16:20:45.613Z,1.30
2022-10-01T16:23:47.809Z,1.17
2022-10-01T16:26:29.977Z,2.28
2022-10-01T16:29:00.141Z,1.55
2022-10-01T16:31:28.570Z,1.10
2022-10-01T16:33:55.560Z,1.33
2022-10-01T16:36:24.407Z,1.30
2022-10-01T16:38:51.693Z,1.02
2022-10-01T16:41:25.077Z,1.50
2022-10-01T16:43:54.732Z,1.30
2022-10-01T16:46:21.991Z,1.30
2022-10-01T16:48:53.394Z,1.48
2022-10-01T16:51:21.861Z,1.30
2022-10-01T16:53:49.759Z,1.30
2022-10-01T16:56:16.719Z,1.23
2022-10-01T16:58:44.279Z,1.30
2022-10-01T17:01:14.671Z,1.42
2022-10-01T17:03:42.187Z,1.23
2022-10-01T17:06:09.228Z,1.40
2022-10-01T17:08:36.181Z,1.40
2022-10-01T17:11:04.584Z,1.15
2022-10-01T17:13:34.015Z,1.50
2022-10-01T17:16:02.029Z,1.33
2022-10-01T17:18:29.136Z,1.63
2022-10-01T17:20:56.300Z,1.40
2022-10-01T17:23:23.555Z,1.48
2022-10-01T17:25:50.996Z,1.52
2022-10-01T17:28:20.378Z,1.80
2022-10-01T17:30:49.247Z,1.63
2022-10-01T17:33:21.786Z,1.70
2022-10-01T17:35:51.952Z,2.20
2022-10-01T17:38:19.442Z,1.75
2022-10-01T17:40:47.743Z,2.63
2022-10-01T17:43:16.347Z,3.67
2022-10-01T17:45:44.080Z,3.53
2022-10-01T17:48:11.787Z,3.40
2022-10-01T17:50:43.461Z,3.08
2022-10-01T17:53:11.433Z,3.20
2022-10-01T17:55:42.832Z,2.78
2022-10-01T17:58:10.260Z,2.22
2022-10-01T18:00:39.929Z,2.05
2022-10-01T18:03:07.140Z,2.50
2022-10-01T18:05:34.287Z,2.28
2022-10-01T18:08:01.431Z,2.40
2022-10-01T18:10:28.518Z,3.10
2022-10-01T18:12:57.469Z,2.67
2022-10-01T18:15:24.599Z,2.47
2022-10-01T18:18:38.098Z,3.13
2022-10-01T18:20:40.426Z,3.30
2022-10-01T18:23:07.451Z,3.83
2022-10-01T18:25:34.465Z,3.75
2022-10-01T18:28:01.733Z,3.30
2022-10-01T18:30:28.857Z,3.30
2022-10-01T18:32:57.272Z,3.38
2022-10-01T18:35:34.838Z,3.22
2022-10-01T18:38:09.771Z,3.60
2022-10-01T18:40:42.344Z,3.65
2022-10-01T18:43:14.242Z,4.13
2022-10-01T18:45:46.600Z,3.40
2022-10-01T18:48:32.345Z,3.60
2022-10-01T18:51:20.591Z,3.92
2022-10-01T18:54:17.208Z,4.00
2022-10-01T18:57:07.012Z,4.10
2022-10-01T18:59:49.411Z,5.70
2022-10-01T19:02:49.484Z,5.80
2022-10-01T19:05:20.348Z,6.05
2022-10-01T19:08:09.330Z,6.38
2022-10-01T19:10:51.127Z,5.30
2022-10-01T19:13:21.127Z,4.95
2022-10-01T19:16:24.063Z,5.47
2022-10-01T19:18:57.156Z,6.97
2022-10-01T19:21:27.278Z,6.65
2022-10-01T19:24:35.170Z,4.55
2022-10-01T19:27:27.208Z,4.15
2022-10-01T19:30:02.521Z,5.55
2022-10-01T19:32:47.524Z,3.70
2022-10-01T19:35:30.905Z,4.55
2022-10-01T19:38:33.881Z,3.88
2022-10-01T19:41:23.171Z,3.80
2022-10-01T19:44:00.589Z,4.18
2022-10-01T19:46:36.640Z,3.65
2022-10-01T19:49:28.470Z,4.32
2022-10-01T19:52:21.213Z,5.22
2022-10-01T19:55:01.430Z,10.30
2022-10-01T19:57:30.645Z,3.95
2022-10-01T20:00:07.475Z,3.45
2022-10-01T20:02:45.773Z,3.67
2022-10-01T20:05:41.524Z,3.92
2022-10-01T20:08:17.982Z,4.18
2022-10-01T20:10:53.836Z,3.60
2022-10-01T20:13:43.803Z,3.65
2022-10-01T20:16:47.235Z,3.97
2022-10-01T20:19:17.119Z,4.10
2022-10-01T20:22:07.635Z,5.20
2022-10-01T20:24:54.068Z,3.70
2022-10-01T20:27:48.414Z,3.92
2022-10-01T20:30:20.097Z,6.30
2022-10-01T20:33:07.543Z,4.72
2022-10-01T20:35:42.872Z,4.38
2022-10-01T20:38:27.496Z,4.38
2022-10-01T20:40:56.061Z,4.07
2022-10-01T20:43:30.615Z,4.20
2022-10-01T20:46:02.703Z,3.90
2022-10-01T20:48:36.824Z,3.80
2022-10-01T20:51:10.149Z,3.58
2022-10-01T20:53:45.606Z,3.60
2022-10-01T20:56:38.221Z,3.45
2022-10-01T20:59:19.278Z,4.20
2022-10-01T21:02:02.939Z,3.53
2022-10-01T21:04:37.669Z,3.72
2022-10-01T21:07:59.896Z,4.30
2022-10-01T21:10:45.059Z,3.90
2022-10-01T21:13:16.001Z,3.63
2022-10-01T21:16:01.759Z,3.88
2022-10-01T21:19:06.552Z,3.42
2022-10-01T21:21:33.495Z,4.28
2022-10-01T21:24:35.707Z,3.92
2022-10-01T21:27:24.655Z,3.15
2022-10-01T21:30:15.330Z,3.88
2022-10-01T21:32:48.348Z,3.13
2022-10-01T21:35:37.577Z,3.03
2022-10-01T21:38:19.050Z,3.60
2022-10-01T21:41:07.956Z,3.17
2022-10-01T21:44:12.955Z,3.05
2022-10-01T21:47:02.610Z,2.83
2022-10-01T21:49:41.791Z,3.25
2022-10-01T21:52:18.224Z,2.65
2022-10-01T21:55:20.924Z,3.45
2022-10-01T21:57:51.483Z,2.97
2022-10-01T22:00:24.410Z,3.13
2022-10-01T22:03:00.344Z,3.45
2022-10-01T22:05:37.427Z,2.60
2022-10-01T22:08:16.362Z,2.58
2022-10-01T22:10:47.999Z,2.70
2022-10-01T22:13:23.182Z,2.67
2022-10-01T22:15:54.288Z,2.35
2022-10-01T22:18:40.124Z,2.22
2022-10-01T22:21:17.277Z,2.60
2022-10-01T22:24:24.826Z,2.58
2022-10-01T22:27:21.104Z,2.38
2022-10-01T22:30:02.264Z,2.70
2022-10-01T22:32:59.027Z,2.58
2022-10-01T22:35:35.888Z,2.80
2022-10-01T22:38:15.142Z,2.65
2022-10-01T22:40:50.456Z,3.13
2022-10-01T22:43:17.715Z,2.58
2022-10-01T22:45:57.552Z,2.60
2022-10-01T22:48:32.143Z,2.90
2022-10-01T22:51:08.193Z,2.42
2022-10-01T22:54:09.117Z,3.22
2022-10-01T22:56:51.319Z,3.25
2022-10-01T22:59:52.372Z,3.10
2022-10-01T23:02:29.555Z,3.08
2022-10-01T23:05:36.286Z,3.38
2022-10-01T23:08:17.916Z,3.72
2022-10-01T23:11:00.015Z,3.65
2022-10-01T23:13:36.782Z,3.85
2022-10-01T23:16:09.822Z,3.50
2022-10-01T23:18:40.859Z,3.88
2022-10-01T23:21:38.834Z,4.45
2022-10-01T23:24:39.377Z,3.58
2022-10-01T23:27:09.307Z,3.72
2022-10-01T23:29:54.947Z,4.43
2022-10-01T23:32:46.377Z,3.60
2022-10-01T23:35:20.211Z,3.97
2022-10-01T23:38:08.564Z,4.38
2022-10-01T23:40:41.441Z,3.28
2022-10-01T23:43:32.324Z,3.72
2022-10-01T23:46:13.304Z,4.47
2022-10-01T23:48:55.744Z,4.03
2022-10-01T23:51:24.957Z,4.22
2022-10-01T23:54:15.628Z,3.92
2022-10-01T23:56:52.861Z,3.28
2022-10-01T23:59:48.875Z,4.35
